Time;durP1;ratioP1;P1;durP2;ratioP2;P2;SDS_P1;SDS_P2;PMS_P1;PMS_P2;Temp;Humidity;BMP_temperature;BMP_pressure;BME280_temperature;BME280_humidity;BME280_pressure;Samples;Min_cycle;Max_cycle;Signal;HPM_P1;HPM_P2
2023/10/02 00:03:40;;;;;;;19.27;8.07;;;;;;;13.27;100.00;149434.34;4927264;28;20690;-56
2023/10/02 00:06:06;;;;;;;17.77;7.57;;;;;;;13.27;100.00;149434.34;4930094;28;20223;-57
2023/10/02 00:08:42;;;;;;;19.57;7.70;;;;;;;13.29;100.00;149440.56;4926824;28;20231;-57
2023/10/02 00:11:39;;;;;;;19.60;7.83;;;;;;;13.27;100.00;149435.56;4929713;28;20223;-57
2023/10/02 00:14:18;;;;;;;20.67;8.03;;;;;;;13.27;100.00;149434.34;4925401;28;20232;-57
2023/10/02 00:16:58;;;;;;;17.97;7.83;;;;;;;13.26;100.00;149431.84;4927344;29;20236;-57
2023/10/02 00:19:27;;;;;;;18.60;7.73;;;;;;;13.31;100.00;149444.34;4926772;28;20223;-57
2023/10/02 00:21:57;;;;;;;19.10;8.07;;;;;;;13.26;100.00;149433.09;4929648;28;20346;-56
2023/10/02 00:24:26;;;;;;;19.23;7.90;;;;;;;13.33;100.00;149448.06;4925696;29;20233;-56
2023/10/02 00:26:57;;;;;;;22.83;8.00;;;;;;;13.38;100.00;149461.81;4929052;28;20252;-56
2023/10/02 00:29:24;;;;;;;17.97;7.67;;;;;;;13.31;100.00;149444.34;4927197;28;20209;-55
2023/10/02 00:31:51;;;;;;;17.63;8.07;;;;;;;13.26;100.00;149433.09;4933035;29;20240;-56
2023/10/02 00:34:30;;;;;;;18.70;8.13;;;;;;;13.35;100.00;149453.03;4925291;28;20250;-57
2023/10/02 00:37:24;;;;;;;16.70;7.77;;;;;;;13.35;100.00;149453.03;4926033;28;20246;-56
2023/10/02 00:39:52;;;;;;;17.03;7.83;;;;;;;13.26;100.00;149433.09;4933970;29;20648;-56
2023/10/02 00:42:24;;;;;;;19.27;7.87;;;;;;;13.19;100.00;149415.66;4925348;28;20633;-56
2023/10/02 00:44:55;;;;;;;19.13;8.43;;;;;;;13.16;100.00;149406.91;4919176;29;20245;-56
2023/10/02 00:47:38;;;;;;;20.23;8.37;;;;;;;13.16;100.00;149406.91;4926630;28;20267;-56
2023/10/02 00:50:16;;;;;;;19.87;8.83;;;;;;;13.20;100.00;149416.88;4920480;29;20343;-56
2023/10/02 00:52:46;;;;;;;21.40;8.50;;;;;;;13.25;100.00;149429.38;4926625;28;20238;-56
2023/10/02 00:55:16;;;;;;;19.90;7.97;;;;;;;13.21;100.00;149420.66;4942734;28;20232;-56
2023/10/02 00:57:45;;;;;;;16.27;8.03;;;;;;;13.21;100.00;149419.38;4939945;28;20595;-57
2023/10/02 01:00:20;;;;;;;16.40;7.53;;;;;;;13.20;100.00;149416.88;4929241;28;20584;-56
2023/10/02 01:02:57;;;;;;;18.97;7.97;;;;;;;13.24;100.00;149428.13;4929617;28;20318;-56
2023/10/02 01:05:30;;;;;;;20.57;7.50;;;;;;;13.17;100.00;149410.66;4941956;28;20584;-54
2023/10/02 01:07:58;;;;;;;19.43;8.20;;;;;;;13.33;100.00;149448.06;4944565;28;20233;-56
2023/10/02 01:10:29;;;;;;;19.93;7.90;;;;;;;13.25;100.00;149429.38;4939724;28;20383;-57
2023/10/02 01:13:01;;;;;;;20.07;7.73;;;;;;;13.28;100.00;149436.84;4942654;28;20230;-54
2023/10/02 01:15:29;;;;;;;20.17;8.17;;;;;;;13.26;100.00;149433.09;4939900;28;20304;-56
2023/10/02 01:18:18;;;;;;;18.63;8.40;;;;;;;13.22;100.00;149421.88;4927898;28;20605;-57
2023/10/02 01:20:48;;;;;;;19.40;8.93;;;;;;;13.26;100.00;149433.09;4927621;28;20253;-56
2023/10/02 01:23:17;;;;;;;20.97;8.73;;;;;;;13.17;100.00;149410.66;4928639;28;20226;-56
2023/10/02 01:25:46;;;;;;;18.17;8.23;;;;;;;13.21;100.00;149419.38;4923698;29;20335;-56
2023/10/02 01:28:15;;;;;;;26.23;8.97;;;;;;;13.23;100.00;149425.63;4927003;28;20224;-55
2023/10/02 01:30:45;;;;;;;21.13;8.37;;;;;;;13.23;100.00;149424.38;4926659;28;20250;-56
2023/10/02 01:33:21;;;;;;;18.33;7.90;;;;;;;13.16;100.00;149406.91;4917107;29;20231;-55
2023/10/02 01:35:50;;;;;;;17.83;7.50;;;;;;;13.10;100.00;149393.19;4925031;29;20675;-57
2023/10/02 01:38:27;;;;;;;18.20;8.23;;;;;;;13.08;100.00;149388.22;4925457;29;20315;-57
2023/10/02 01:41:02;;;;;;;21.63;9.10;;;;;;;13.11;100.00;149395.69;4928080;28;20242;-57
2023/10/02 01:43:32;;;;;;;20.77;8.33;;;;;;;13.15;100.00;149405.69;4915102;29;20226;-55
2023/10/02 01:46:00;;;;;;;23.27;9.50;;;;;;;13.11;100.00;149395.69;4928176;29;20704;-56
2023/10/02 01:48:48;;;;;;;23.47;8.10;;;;;;;13.03;100.00;149376.97;4924239;28;20223;-54
2023/10/02 01:51:20;;;;;;;17.97;8.43;;;;;;;12.99;100.00;149366.97;4919883;28;20319;-57
2023/10/02 01:53:48;;;;;;;19.80;8.40;;;;;;;12.95;100.00;149357.00;4925344;28;20224;-55
2023/10/02 01:56:17;;;;;;;19.53;8.30;;;;;;;12.85;100.00;149334.53;4927738;29;20315;-56
2023/10/02 01:58:44;;;;;;;18.67;8.43;;;;;;;12.79;100.00;149318.34;4919448;29;20244;-56
2023/10/02 02:01:11;;;;;;;22.90;8.37;;;;;;;12.71;100.00;149299.66;4927888;28;20242;-57
2023/10/02 02:03:39;;;;;;;20.27;8.77;;;;;;;12.62;100.00;149278.44;4939033;28;20324;-53
2023/10/02 02:06:17;;;;;;;19.27;8.97;;;;;;;12.51;100.00;149252.28;4926901;29;20310;-57
2023/10/02 02:08:44;;;;;;;21.97;8.77;;;;;;;12.45;100.00;149236.03;4925341;28;20231;-56
2023/10/02 02:11:18;;;;;;;22.40;9.70;;;;;;;12.36;100.00;149214.84;4925939;29;20231;-53
2023/10/02 02:13:48;;;;;;;20.20;9.40;;;;;;;12.28;100.00;149194.91;4940093;28;20290;-57
2023/10/02 02:16:16;;;;;;;23.03;9.23;;;;;;;12.27;100.00;149192.41;4926912;29;20224;-57
2023/10/02 02:18:45;;;;;;;22.53;9.13;;;;;;;12.21;100.00;149178.69;4941132;28;20232;-57
2023/10/02 02:21:16;;;;;;;20.60;9.37;;;;;;;12.16;100.00;149166.25;4927582;28;20576;-57
2023/10/02 02:23:45;;;;;;;21.97;9.30;;;;;;;12.13;100.00;149160.00;4926263;28;20234;-56
2023/10/02 02:26:20;;;;;;;21.20;9.73;;;;;;;12.11;100.00;149155.00;4927900;28;20223;-56
2023/10/02 02:28:51;;;;;;;23.30;9.40;;;;;;;12.05;100.00;149140.03;4940043;28;20258;-56
2023/10/02 02:31:31;;;;;;;23.45;10.52;;;;;;;12.06;100.00;149142.53;4923042;28;20441;-56
2023/10/02 02:33:59;;;;;;;20.53;9.67;;;;;;;12.01;100.00;149131.34;4927858;28;20225;-56
2023/10/02 02:36:27;;;;;;;21.30;9.87;;;;;;;11.96;100.00;149118.81;4923782;29;20246;-57
2023/10/02 02:39:15;;;;;;;18.57;8.47;;;;;;;11.92;100.00;149108.84;4927023;28;20234;-56
2023/10/02 02:41:43;;;;;;;20.90;8.33;;;;;;;11.89;100.00;149102.59;4939587;28;20227;-54
2023/10/02 02:46:55;;;;;;;19.97;8.43;;;;;;;11.83;100.00;149087.63;4923826;29;20308;-54
2023/10/02 02:49:22;;;;;;;19.97;9.07;;;;;;;11.87;100.00;149097.59;4925410;28;20233;-54
2023/10/02 02:51:49;;;;;;;20.83;8.90;;;;;;;11.88;100.00;149098.88;4929535;29;20231;-56
2023/10/02 02:54:16;;;;;;;22.03;8.73;;;;;;;11.92;100.00;149110.09;4932272;29;20867;-56
2023/10/02 02:56:45;;;;;;;19.47;8.77;;;;;;;12.00;100.00;149127.56;4929724;29;20289;-56
2023/10/02 02:59:13;;;;;;;20.33;8.77;;;;;;;11.96;100.00;149118.81;4945313;28;20223;-57
2023/10/02 03:04:21;;;;;;;21.37;8.87;;;;;;;11.93;100.00;149112.56;5426224;23;20285;-52
2023/10/02 03:07:07;;;;;;;17.43;8.30;;;;;;;11.93;100.00;149111.34;4942461;28;20237;-52
2023/10/02 03:09:34;;;;;;;23.33;8.83;;;;;;;11.92;100.00;149110.09;4930762;28;20234;-52
2023/10/02 03:12:05;;;;;;;21.10;8.90;;;;;;;11.97;100.00;149121.31;4930805;28;20227;-51
2023/10/02 03:14:35;;;;;;;21.03;8.73;;;;;;;12.01;100.00;149130.06;4906694;29;20231;-52
2023/10/02 03:19:45;;;;;;;23.43;8.83;;;;;;;12.05;100.00;149140.03;4899610;28;20240;-53
2023/10/02 03:22:11;;;;;;;22.00;8.37;;;;;;;11.99;100.00;149125.03;4903124;29;20307;-52
2023/10/02 03:24:39;;;;;;;19.67;8.77;;;;;;;11.89;100.00;149101.38;4897588;29;20301;-52
2023/10/02 03:27:09;;;;;;;20.33;8.63;;;;;;;11.96;100.00;149120.06;4900434;29;20318;-51
2023/10/02 03:29:37;;;;;;;19.27;9.00;;;;;;;11.93;100.00;149112.56;4897568;28;20575;-52
2023/10/02 03:32:05;;;;;;;21.03;8.27;;;;;;;11.93;100.00;149112.56;5108678;23;20222;-53
2023/10/02 03:34:34;;;;;;;24.70;9.30;;;;;;;11.90;100.00;149105.09;4917296;28;20268;-51
2023/10/02 03:37:13;;;;;;;23.60;9.10;;;;;;;11.89;100.00;149101.38;4922027;28;20598;-51
2023/10/02 03:39:59;;;;;;;22.77;8.30;;;;;;;11.86;100.00;149095.13;4917696;28;20242;-51
2023/10/02 03:42:26;;;;;;;19.13;8.43;;;;;;;11.88;100.00;149100.09;4919687;28;20254;-51
2023/10/02 03:44:56;;;;;;;20.07;8.47;;;;;;;11.89;100.00;149102.59;4923489;28;20327;-52
2023/10/02 03:47:23;;;;;;;18.47;8.97;;;;;;;11.93;100.00;149112.56;4917957;28;20709;-53
2023/10/02 03:49:51;;;;;;;22.10;8.90;;;;;;;12.01;100.00;149130.06;4920311;28;20595;-53
2023/10/02 03:52:18;;;;;;;19.70;8.17;;;;;;;12.00;100.00;149128.84;4915961;28;20231;-52
2023/10/02 03:54:45;;;;;;;20.33;8.57;;;;;;;11.93;100.00;149112.56;4922174;28;20235;-51
2023/10/02 03:57:37;;;;;;;19.50;8.47;;;;;;;11.91;100.00;149107.59;4920298;28;20223;-51
2023/10/02 04:00:16;;;;;;;19.93;8.97;;;;;;;11.90;100.00;149103.88;4916753;28;20250;-51
2023/10/02 04:02:45;;;;;;;18.43;8.73;;;;;;;11.86;100.00;149095.13;4918383;28;20645;-51
2023/10/02 04:05:11;;;;;;;18.43;8.13;;;;;;;12.02;100.00;149132.56;4923769;28;20232;-51
2023/10/02 04:07:38;;;;;;;23.47;9.03;;;;;;;12.05;100.00;149140.03;4917660;28;20245;-51
2023/10/02 04:10:07;;;;;;;19.37;8.50;;;;;;;11.97;100.00;149121.31;4919036;28;20599;-51
2023/10/02 04:12:50;;;;;;;23.50;8.80;;;;;;;11.95;100.00;149116.34;4913557;28;20316;-52
2023/10/02 04:15:18;;;;;;;20.67;8.87;;;;;;;11.92;100.00;149110.09;4921359;28;20220;-51
2023/10/02 04:17:49;;;;;;;23.40;9.40;;;;;;;11.93;100.00;149112.56;4916352;28;20226;-51
2023/10/02 04:20:27;;;;;;;21.50;9.17;;;;;;;12.05;100.00;149140.03;4916065;28;20231;-51
2023/10/02 04:22:54;;;;;;;21.33;8.80;;;;;;;12.06;100.00;149143.81;4915929;28;20243;-51
2023/10/02 04:25:24;;;;;;;19.93;8.10;;;;;;;12.00;100.00;149128.84;4917620;28;20237;-51
2023/10/02 04:28:08;;;;;;;21.07;8.67;;;;;;;11.95;100.00;149116.34;4917619;28;20247;-52
2023/10/02 04:30:37;;;;;;;23.10;8.77;;;;;;;11.91;100.00;149107.59;4917439;28;20238;-52
2023/10/02 04:33:08;;;;;;;20.03;8.40;;;;;;;11.89;100.00;149101.38;4919249;28;20227;-51
2023/10/02 04:35:45;;;;;;;21.00;8.67;;;;;;;12.02;100.00;149133.84;4916985;28;20230;-52
2023/10/02 04:38:15;;;;;;;24.43;8.93;;;;;;;12.08;100.00;149148.78;4918930;28;20264;-51
2023/10/02 04:40:49;;;;;;;18.30;8.07;;;;;;;12.09;100.00;149151.28;4914381;28;20313;-53
2023/10/02 04:43:22;;;;;;;24.60;9.47;;;;;;;12.10;100.00;149152.50;4917222;28;20650;-52
2023/10/02 04:45:52;;;;;;;20.67;8.33;;;;;;;12.08;100.00;149147.53;4915704;28;20857;-53
2023/10/02 04:48:25;;;;;;;18.43;8.20;;;;;;;12.09;100.00;149151.28;4916436;28;20237;-51
2023/10/02 04:51:07;;;;;;;22.70;8.90;;;;;;;12.07;100.00;149146.31;4917590;28;20246;-52
2023/10/02 04:53:39;;;;;;;24.27;9.13;;;;;;;12.03;100.00;149136.34;4912605;28;20575;-51
2023/10/02 04:56:21;;;;;;;19.77;8.03;;;;;;;12.01;100.00;149131.34;4924918;28;20241;-51
2023/10/02 04:58:49;;;;;;;21.13;8.57;;;;;;;12.12;100.00;149156.28;4920071;28;20237;-52
2023/10/02 05:01:34;;;;;;;19.87;9.10;;;;;;;12.12;100.00;149156.28;4918338;28;20254;-51
2023/10/02 05:04:02;;;;;;;22.77;8.50;;;;;;;12.01;100.00;149130.06;4912718;28;20729;-51
2023/10/02 05:06:52;;;;;;;19.37;8.23;;;;;;;11.96;100.00;149118.81;4915266;28;20231;-53
2023/10/02 05:09:21;;;;;;;20.17;8.60;;;;;;;11.90;100.00;149105.09;4914000;28;20228;-51
2023/10/02 05:11:55;;;;;;;20.93;9.13;;;;;;;11.87;100.00;149097.59;4914866;28;20253;-51
2023/10/02 05:14:29;;;;;;;17.43;8.03;;;;;;;11.84;100.00;149090.13;4914844;28;20649;-52
2023/10/02 05:17:16;;;;;;;18.07;8.33;;;;;;;11.80;100.00;149081.44;4917112;28;20312;-51
2023/10/02 05:19:56;;;;;;;18.33;8.10;;;;;;;11.76;100.00;149070.19;4918652;28;20318;-51
2023/10/02 05:22:24;;;;;;;20.27;8.57;;;;;;;11.74;100.00;149066.47;4932195;28;20317;-52
2023/10/02 05:24:58;;;;;;;18.87;7.97;;;;;;;11.76;100.00;149070.19;4918828;28;20662;-51
2023/10/02 05:27:31;;;;;;;18.10;8.40;;;;;;;11.72;100.00;149061.47;4917385;28;20262;-51
2023/10/02 05:30:05;;;;;;;19.90;8.77;;;;;;;11.76;100.00;149071.47;4919162;28;20231;-51
2023/10/02 05:32:36;;;;;;;22.07;9.20;;;;;;;11.69;100.00;149052.75;4913888;28;20239;-51
2023/10/02 05:35:16;;;;;;;20.40;9.27;;;;;;;11.63;100.00;149040.31;4918243;28;20238;-51
2023/10/02 05:37:48;;;;;;;22.23;9.80;;;;;;;11.75;100.00;149067.69;4917114;28;20281;-51
2023/10/02 05:43:10;;;;;;;19.67;8.80;;;;;;;11.74;100.00;149066.47;4911578;28;20234;-51
2023/10/02 05:45:40;;;;;;;18.87;8.57;;;;;;;11.72;100.00;149061.47;4912912;28;20318;-51
2023/10/02 05:48:14;;;;;;;24.67;9.20;;;;;;;11.72;100.00;149061.47;4916996;28;20751;-51
2023/10/02 05:50:47;;;;;;;21.13;8.47;;;;;;;11.73;100.00;149062.72;4912057;28;20240;-52
2023/10/02 05:53:15;;;;;;;19.07;8.50;;;;;;;11.77;100.00;149072.69;4915261;28;20579;-52
2023/10/02 05:58:31;;;;;;;21.57;8.47;;;;;;;11.87;100.00;149096.38;4911105;28;20288;-51
2023/10/02 06:01:01;;;;;;;20.63;8.20;;;;;;;12.01;100.00;149131.34;4917939;28;20238;-53
2023/10/02 06:03:34;;;;;;;20.63;8.67;;;;;;;12.06;100.00;149142.53;4913470;28;20241;-52
2023/10/02 06:06:17;;;;;;;19.30;9.00;;;;;;;12.06;100.00;149142.53;4918113;28;20234;-52
2023/10/02 06:08:48;;;;;;;20.03;7.97;;;;;;;12.14;100.00;149161.25;4915591;28;20318;-54
2023/10/02 06:11:31;;;;;;;21.73;8.93;;;;;;;12.27;100.00;149192.41;4917950;28;20222;-52
2023/10/02 06:14:09;;;;;;;20.03;8.17;;;;;;;12.27;100.00;149192.41;4916849;28;20654;-54
2023/10/02 06:16:37;;;;;;;19.83;8.33;;;;;;;12.40;100.00;149226.06;4916038;28;20231;-54
2023/10/02 06:19:07;;;;;;;20.77;8.67;;;;;;;12.47;100.00;149242.28;4917069;28;20579;-53
2023/10/02 06:21:45;;;;;;;18.40;8.23;;;;;;;12.53;100.00;149256.00;4918493;28;20227;-53
2023/10/02 06:24:16;;;;;;;21.27;8.67;;;;;;;12.58;100.00;149268.47;4916474;29;20643;-51
2023/10/02 06:26:57;;;;;;;18.87;8.40;;;;;;;12.62;100.00;149278.44;4916849;28;20293;-52
2023/10/02 06:29:24;;;;;;;20.50;8.50;;;;;;;12.77;100.00;149313.38;4918358;28;20313;-54
2023/10/02 06:31:58;;;;;;;21.10;8.23;;;;;;;12.80;100.00;149322.06;4918674;28;20247;-54
2023/10/02 06:34:36;;;;;;;18.47;8.67;;;;;;;12.82;100.00;149327.06;4915997;28;20250;-51
2023/10/02 06:37:08;;;;;;;21.17;8.97;;;;;;;12.83;100.00;149328.34;4923883;28;20222;-52
2023/10/02 06:39:36;;;;;;;17.90;7.40;;;;;;;12.82;100.00;149327.06;4922600;28;20223;-51
2023/10/02 06:42:05;;;;;;;25.63;8.77;;;;;;;12.80;100.00;149320.84;4936274;28;20232;-51
2023/10/02 06:44:38;;;;;;;17.30;7.83;;;;;;;12.82;100.00;149325.84;4916174;28;20258;-52
2023/10/02 06:47:11;;;;;;;19.93;8.30;;;;;;;12.82;100.00;149325.84;4919498;28;20246;-51
2023/10/02 06:49:40;;;;;;;19.00;8.93;;;;;;;12.83;100.00;149328.34;4917921;28;20299;-54
2023/10/02 06:52:15;;;;;;;17.73;8.40;;;;;;;12.85;100.00;149333.31;4922239;28;20737;-52
2023/10/02 06:54:45;;;;;;;18.03;8.90;;;;;;;12.85;100.00;149333.31;4916261;28;20233;-52
2023/10/02 06:57:13;;;;;;;20.10;8.53;;;;;;;12.85;100.00;149333.31;4922439;28;20230;-51
2023/10/02 06:59:51;;;;;;;21.40;9.30;;;;;;;12.85;100.00;149334.53;4918663;28;20242;-51
2023/10/02 07:02:18;;;;;;;24.27;8.73;;;;;;;12.88;100.00;149339.53;4919571;28;20228;-52
2023/10/02 07:04:47;;;;;;;19.60;8.20;;;;;;;12.91;100.00;149347.03;4915731;28;20231;-53
2023/10/02 07:07:15;;;;;;;19.27;8.63;;;;;;;12.92;100.00;149350.78;4918634;28;20283;-53
2023/10/02 07:09:43;;;;;;;23.97;9.23;;;;;;;12.95;100.00;149357.00;4920729;28;20243;-53
2023/10/02 07:12:13;;;;;;;19.77;8.90;;;;;;;12.98;100.00;149365.75;4920008;28;20259;-54
2023/10/02 07:14:42;;;;;;;21.73;8.30;;;;;;;13.03;100.00;149375.72;4915393;28;20700;-51
2023/10/02 07:17:18;;;;;;;19.23;8.43;;;;;;;13.06;100.00;149383.22;4918997;28;20231;-54
2023/10/02 07:19:51;;;;;;;20.63;8.43;;;;;;;13.13;100.00;149400.69;4916606;28;20586;-53
2023/10/02 07:22:25;;;;;;;19.63;8.63;;;;;;;13.20;100.00;149416.88;4919446;28;20227;-52
2023/10/02 07:24:54;;;;;;;19.17;8.27;;;;;;;13.25;100.00;149429.38;4918691;28;20239;-53
2023/10/02 07:27:27;;;;;;;20.07;8.37;;;;;;;13.36;100.00;149455.53;4917272;28;20243;-51
2023/10/02 07:29:56;;;;;;;19.97;8.60;;;;;;;13.44;100.00;149475.56;4920057;28;20224;-52
2023/10/02 07:32:23;;;;;;;20.83;8.80;;;;;;;13.52;100.00;149494.28;4922637;28;20226;-51
2023/10/02 07:34:53;;;;;;;20.13;8.83;;;;;;;13.60;100.00;149514.25;4921060;28;20640;-51
2023/10/02 07:37:24;;;;;;;20.43;9.30;;;;;;;13.69;100.00;149535.47;4923229;28;20231;-54
2023/10/02 07:40:00;;;;;;;22.80;8.67;;;;;;;13.80;100.00;149562.91;4920894;28;20241;-51
2023/10/02 07:42:29;;;;;;;19.17;8.40;;;;;;;13.96;100.00;149601.59;4916427;28;20231;-51
2023/10/02 07:45:12;;;;;;;19.97;8.67;;;;;;;14.09;100.00;149631.53;4918903;28;20299;-54
2023/10/02 07:48:08;;;;;;;17.77;8.60;;;;;;;14.21;100.00;149660.28;4916687;28;20252;-54
2023/10/02 07:50:39;;;;;;;20.33;8.63;;;;;;;14.39;100.00;149705.19;4912467;28;20319;-51
2023/10/02 07:53:06;;;;;;;18.23;8.87;;;;;;;14.57;100.00;149748.91;4920789;28;20318;-53
2023/10/02 07:55:39;;;;;;;19.93;9.07;;;;;;;14.72;100.00;149785.16;4919931;28;20249;-53
2023/10/02 07:58:08;;;;;;;19.23;8.07;;;;;;;14.89;100.00;149826.34;4919959;28;20242;-51
2023/10/02 08:00:39;;;;;;;16.90;8.07;;;;;;;15.05;100.00;149865.09;4919411;28;20237;-53
2023/10/02 08:03:31;;;;;;;19.33;8.57;;;;;;;15.23;100.00;149907.56;4919933;28;20233;-52
2023/10/02 08:05:57;;;;;;;17.97;8.33;;;;;;;15.40;100.00;149947.50;4922321;28;20232;-52
2023/10/02 08:08:26;;;;;;;18.77;8.33;;;;;;;15.54;100.00;149981.25;4916481;28;20239;-53
2023/10/02 08:10:53;;;;;;;17.20;8.00;;;;;;;15.69;100.00;150017.47;4919490;28;20236;-51
2023/10/02 08:13:32;;;;;;;19.27;8.90;;;;;;;15.78;100.00;150041.22;4916205;28;20698;-51
2023/10/02 08:16:01;;;;;;;20.20;8.87;;;;;;;15.90;100.00;150068.78;4919709;28;20713;-51
2023/10/02 08:18:29;;;;;;;20.23;8.47;;;;;;;16.03;100.00;150101.22;4918807;28;20233;-54
2023/10/02 08:20:57;;;;;;;18.90;8.87;;;;;;;16.13;100.00;150125.00;4921931;28;20241;-52
2023/10/02 08:23:24;;;;;;;18.33;8.40;;;;;;;16.21;100.00;150145.00;4916145;28;20236;-51
2023/10/02 08:26:02;;;;;;;16.97;8.00;;;;;;;16.36;100.00;150180.00;4919304;28;20241;-52
2023/10/02 08:28:33;;;;;;;20.10;8.93;;;;;;;16.49;100.00;150212.44;4917879;28;20237;-52
2023/10/02 08:31:03;;;;;;;18.77;8.77;;;;;;;16.60;100.00;150237.44;4918525;28;20245;-54
2023/10/02 08:33:31;;;;;;;19.07;9.23;;;;;;;16.69;100.00;150259.97;4918436;28;20240;-54
2023/10/02 08:36:09;;;;;;;18.87;8.80;;;;;;;16.77;100.00;150279.97;4917860;28;20851;-54
2023/10/02 08:38:36;;;;;;;24.07;8.83;;;;;;;16.93;100.00;150317.47;4917047;28;20227;-53
2023/10/02 08:41:08;;;;;;;16.47;7.77;;;;;;;17.08;100.00;150353.78;4916893;28;20285;-53
2023/10/02 08:43:41;;;;;;;16.53;8.00;;;;;;;17.17;100.00;150376.28;4920207;28;20693;-52
2023/10/02 08:46:18;;;;;;;16.47;7.70;;;;;;;17.29;100.00;150403.78;4924170;28;20234;-54
2023/10/02 08:48:46;;;;;;;17.30;8.93;;;;;;;17.40;100.00;150432.59;4919525;28;20688;-51
2023/10/02 08:51:28;;;;;;;16.23;8.43;;;;;;;17.60;100.00;150480.09;4921046;28;20296;-55
2023/10/02 08:53:57;;;;;;;19.97;8.67;;;;;;;17.74;100.00;150512.59;4928736;28;20242;-54
2023/10/02 08:56:26;;;;;;;20.90;10.00;;;;;;;17.85;100.00;150541.41;4915176;28;20238;-53
2023/10/02 09:01:33;;;;;;;21.83;9.80;;;;;;;18.03;100.00;150582.72;4915256;28;20227;-54
2023/10/02 09:04:21;;;;;;;19.70;9.77;;;;;;;18.11;99.31;150602.75;4918062;28;20231;-53
2023/10/02 09:06:53;;;;;;;18.93;9.77;;;;;;;18.18;99.55;150619.00;4916897;28;20390;-53
2023/10/02 09:09:27;;;;;;;18.50;9.33;;;;;;;18.28;99.04;150645.28;4916883;28;20212;-50
2023/10/02 09:11:57;;;;;;;21.93;10.43;;;;;;;18.34;97.96;150659.03;4919013;28;20244;-53
2023/10/02 09:14:39;;;;;;;21.03;9.80;;;;;;;18.45;98.37;150685.34;4914636;28;20228;-52
2023/10/02 09:17:16;;;;;;;22.80;10.00;;;;;;;18.49;95.46;150694.09;4917839;28;20314;-51
2023/10/02 09:19:50;;;;;;;27.17;10.93;;;;;;;18.54;94.93;150707.88;4916646;28;20703;-52
2023/10/02 09:22:20;;;;;;;21.53;10.07;;;;;;;18.66;94.15;150735.38;4920180;28;20229;-52
2023/10/02 09:24:58;;;;;;;21.07;9.97;;;;;;;18.74;94.47;150756.66;4915907;28;20236;-51
2023/10/02 09:27:30;;;;;;;21.43;10.03;;;;;;;18.91;92.82;150796.72;4916011;28;20251;-51
2023/10/02 09:30:19;;;;;;;18.80;9.30;;;;;;;18.92;91.60;150799.25;4918360;28;20235;-52
2023/10/02 09:32:50;;;;;;;20.83;10.43;;;;;;;19.03;91.83;150826.84;4928038;28;21128;-52
2023/10/02 09:35:29;;;;;;;21.73;9.90;;;;;;;19.10;91.67;150841.81;4919425;28;20217;-50
2023/10/02 09:38:02;;;;;;;27.00;10.17;;;;;;;19.26;89.95;150880.66;4916320;28;20590;-50
2023/10/02 09:40:53;;;;;;;29.07;10.77;;;;;;;19.30;89.88;150890.66;4916791;28;20230;-50
2023/10/02 09:43:20;;;;;;;25.03;11.07;;;;;;;19.35;88.51;150903.19;4916289;28;20704;-50
2023/10/02 09:45:49;;;;;;;24.00;10.70;;;;;;;19.32;88.92;150896.91;4915243;28;20234;-50
2023/10/02 09:51:19;;;;;;;22.53;10.50;;;;;;;19.56;89.70;150954.50;4916784;28;20233;-52
2023/10/02 09:54:04;;;;;;;22.70;10.33;;;;;;;19.57;88.04;150955.78;4914020;28;20233;-53
2023/10/02 09:56:51;;;;;;;22.63;10.77;;;;;;;19.51;88.45;150940.75;4917232;28;20226;-53
2023/10/02 09:59:21;;;;;;;26.20;11.03;;;;;;;19.61;87.51;150967.03;4914932;28;20704;-53
2023/10/02 10:05:45;;;;;;;25.27;11.33;;;;;;;19.84;85.35;151020.88;4915612;28;20667;-52
2023/10/02 10:08:27;;;;;;;28.57;11.63;;;;;;;19.86;85.61;151025.88;4912908;28;20224;-53
2023/10/02 10:10:57;;;;;;;26.97;11.17;;;;;;;19.79;86.24;151009.63;4913935;28;20236;-51
2023/10/02 10:13:27;;;;;;;25.00;11.53;;;;;;;19.88;84.61;151030.91;4914217;28;20271;-54
2023/10/02 10:16:32;;;;;;;26.27;12.40;;;;;;;19.90;85.97;151035.94;4917205;28;20252;-52
2023/10/02 10:19:26;;;;;;;29.67;12.67;;;;;;;19.98;83.62;151056.00;4918916;28;20690;-52
2023/10/02 10:21:56;;;;;;;29.27;13.17;;;;;;;20.13;84.85;151091.06;4914453;28;20265;-53
2023/10/02 10:24:51;;;;;;;22.33;10.60;;;;;;;20.19;83.20;151107.34;4914674;28;20235;-53
2023/10/02 10:27:58;;;;;;;25.57;11.23;;;;;;;20.23;83.29;151114.84;4918334;28;20244;-53
2023/10/02 10:30:33;;;;;;;23.20;10.93;;;;;;;20.31;82.13;151136.19;4909341;28;20605;-53
2023/10/02 10:33:36;;;;;;;26.53;11.93;;;;;;;20.45;81.07;151170.00;4915252;28;20731;-53
2023/10/02 10:36:13;;;;;;;27.40;12.13;;;;;;;20.55;80.32;151192.53;4912047;28;20246;-53
2023/10/02 10:38:41;;;;;;;27.77;11.67;;;;;;;20.42;80.76;151162.47;4913773;28;20243;-53
2023/10/02 10:41:14;;;;;;;26.40;10.83;;;;;;;20.48;81.18;151176.28;4917724;28;20234;-53
2023/10/02 10:43:55;;;;;;;25.80;12.13;;;;;;;20.57;78.83;151198.84;4912074;28;20247;-50
2023/10/02 10:46:27;;;;;;;26.20;11.87;;;;;;;20.59;78.42;151203.84;4912611;28;20233;-52
2023/10/02 10:49:07;;;;;;;25.40;10.93;;;;;;;20.79;78.68;151252.75;4915003;28;20222;-50
2023/10/02 10:51:34;;;;;;;25.27;12.13;;;;;;;20.91;77.68;151281.56;4916496;28;20301;-53
2023/10/02 10:54:12;;;;;;;24.37;10.83;;;;;;;21.13;77.69;151332.97;4919581;28;20260;-54
2023/10/02 10:56:43;;;;;;;23.63;10.63;;;;;;;21.14;76.54;151336.69;4911245;28;20629;-54
2023/10/02 10:59:12;;;;;;;24.97;10.30;;;;;;;21.28;75.92;151369.28;4916186;28;20217;-51
2023/10/02 11:01:39;;;;;;;21.30;10.70;;;;;;;21.36;75.53;151390.59;4910805;28;20248;-53
2023/10/02 11:04:06;;;;;;;24.43;10.97;;;;;;;21.45;74.23;151410.63;4918419;28;20705;-53
2023/10/02 11:06:41;;;;;;;24.23;11.27;;;;;;;21.45;72.47;151411.91;4914773;28;20315;-53
2023/10/02 11:09:12;;;;;;;25.23;11.40;;;;;;;21.43;72.13;151406.91;4918336;28;20687;-52
2023/10/02 11:11:48;;;;;;;25.60;11.10;;;;;;;21.32;74.24;151380.56;4919355;28;20250;-51
2023/10/02 11:14:20;;;;;;;23.23;11.30;;;;;;;21.48;71.98;151418.16;4918147;28;20226;-51
2023/10/02 11:16:51;;;;;;;22.90;11.10;;;;;;;21.63;73.12;151454.59;4935023;28;20241;-53
2023/10/02 11:19:24;;;;;;;23.00;10.97;;;;;;;21.84;72.53;151506.00;4921043;28;20233;-51
2023/10/02 11:22:17;;;;;;;23.90;10.33;;;;;;;21.98;70.98;151539.81;4917448;28;20260;-52
2023/10/02 11:24:44;;;;;;;23.33;10.33;;;;;;;22.02;69.06;151549.84;4916977;28;20232;-50
2023/10/02 11:27:14;;;;;;;20.33;9.90;;;;;;;22.00;68.45;151544.84;4920559;28;20242;-52
2023/10/02 11:29:45;;;;;;;22.20;11.43;;;;;;;21.96;68.63;151534.81;4917497;28;20242;-51
2023/10/02 11:32:20;;;;;;;23.10;11.10;;;;;;;21.94;68.54;151531.06;4919876;28;20230;-50
2023/10/02 11:34:48;;;;;;;25.20;11.47;;;;;;;22.03;68.98;151552.38;4917027;28;20305;-51
2023/10/02 11:37:15;;;;;;;23.00;10.17;;;;;;;22.11;70.36;151571.19;4921425;28;20245;-52
2023/10/02 11:39:42;;;;;;;22.13;10.67;;;;;;;22.30;69.45;151617.59;4917626;28;20230;-52
2023/10/02 11:42:09;;;;;;;24.03;10.90;;;;;;;22.41;68.61;151645.19;4919089;28;20232;-51
2023/10/02 11:44:39;;;;;;;24.20;10.93;;;;;;;22.31;68.60;151618.81;4917284;28;20216;-53
2023/10/02 11:47:10;;;;;;;25.13;11.37;;;;;;;22.50;67.12;151666.53;4922494;28;20247;-51
2023/10/02 11:49:37;;;;;;;24.83;11.07;;;;;;;22.50;66.55;151666.53;4918464;28;20242;-52
2023/10/02 11:52:05;;;;;;;20.80;10.23;;;;;;;22.51;67.11;151667.81;4920827;28;20242;-53
2023/10/02 11:54:36;;;;;;;24.97;11.00;;;;;;;22.52;66.59;151670.31;4920446;28;20239;-52
2023/10/02 11:57:08;;;;;;;21.67;10.40;;;;;;;22.76;67.16;151728.03;4922847;28;20253;-53
2023/10/02 11:59:41;;;;;;;25.07;11.10;;;;;;;22.77;67.13;151730.53;4916422;28;21309;-54
2023/10/02 12:02:11;;;;;;;23.30;10.47;;;;;;;22.81;67.48;151741.81;4919871;28;20946;-53